Bono, Ohio
Current Conditions -  °F | °C
As of 4:50 AM on Thursday 27 Nov 2014 (Local Time) from KTDZ Reporting Station
Overcast Overcast  
Wind Chill: 22°   Ceiling: 3400
Heat Index: 30°   Visibility: 10mi
Dew Point: 25°   Wind: 9mph
Humidity: 80%   Direction: 330°NNW
Pressure: 30.11"   Gusts: NA
Location:  41.5863°N, 83.2966°W
Report Text: KTDZ 270950Z AUTO 33008KT 10SM SCT027 OVC034 M01/M04 A3011 RMK AO2 TSNO
Loading
Personal Weather Stations






























Interactive Weather Map New forecast layout! Learn more

10-Day Weather Forecast

Advertisements
Track Severe Weather on mobile